sensor_id;sensor_type;location;lat;lon;timestamp;temperature;humidity
3408;DHT22;1717;50.240;8.406;2023-04-03T00:01:37;7.70;99.90
3408;DHT22;1717;50.240;8.406;2023-04-03T00:04:05;7.80;99.90
3408;DHT22;1717;50.240;8.406;2023-04-03T00:06:33;7.90;99.90
3408;DHT22;1717;50.240;8.406;2023-04-03T00:09:00;7.70;99.90
3408;DHT22;1717;50.240;8.406;2023-04-03T00:11:27;7.70;99.90
3408;DHT22;1717;50.240;8.406;2023-04-03T00:13:54;7.70;99.90
3408;DHT22;1717;50.240;8.406;2023-04-03T00:16:21;7.70;99.90
3408;DHT22;1717;50.240;8.406;2023-04-03T00:18:48;7.70;99.90
3408;DHT22;1717;50.240;8.406;2023-04-03T00:21:15;7.70;99.90
3408;DHT22;1717;50.240;8.406;2023-04-03T00:23:43;7.70;99.90
3408;DHT22;1717;50.240;8.406;2023-04-03T00:26:10;7.70;99.90
3408;DHT22;1717;50.240;8.406;2023-04-03T00:28:36;7.70;99.90
3408;DHT22;1717;50.240;8.406;2023-04-03T00:31:03;7.70;99.90
3408;DHT22;1717;50.240;8.406;2023-04-03T00:33:30;7.80;99.90
3408;DHT22;1717;50.240;8.406;2023-04-03T00:35:57;7.80;99.90
3408;DHT22;1717;50.240;8.406;2023-04-03T00:38:24;7.80;99.90
3408;DHT22;1717;50.240;8.406;2023-04-03T00:40:52;7.80;99.90
3408;DHT22;1717;50.240;8.406;2023-04-03T00:43:21;7.80;99.90
3408;DHT22;1717;50.240;8.406;2023-04-03T00:45:49;7.80;99.90
3408;DHT22;1717;50.240;8.406;2023-04-03T00:48:20;7.80;99.90
3408;DHT22;1717;50.240;8.406;2023-04-03T00:50:47;7.80;99.90
3408;DHT22;1717;50.240;8.406;2023-04-03T00:53:18;7.80;99.90
3408;DHT22;1717;50.240;8.406;2023-04-03T00:55:48;7.80;99.90
3408;DHT22;1717;50.240;8.406;2023-04-03T00:58:18;7.80;99.90
3408;DHT22;1717;50.240;8.406;2023-04-03T01:00:52;7.80;99.90
3408;DHT22;1717;50.240;8.406;2023-04-03T01:03:22;7.80;99.90
3408;DHT22;1717;50.240;8.406;2023-04-03T01:05:50;7.80;99.90
3408;DHT22;1717;50.240;8.406;2023-04-03T01:08:17;7.80;99.90
3408;DHT22;1717;50.240;8.406;2023-04-03T01:10:44;7.80;99.90
3408;DHT22;1717;50.240;8.406;2023-04-03T01:13:22;7.60;99.90
3408;DHT22;1717;50.240;8.406;2023-04-03T01:15:50;7.90;99.90
3408;DHT22;1717;50.240;8.406;2023-04-03T01:18:17;7.90;99.90
3408;DHT22;1717;50.240;8.406;2023-04-03T01:23:43;7.90;99.90
3408;DHT22;1717;50.240;8.406;2023-04-03T01:26:11;7.90;99.90
3408;DHT22;1717;50.240;8.406;2023-04-03T01:28:39;7.90;99.90
3408;DHT22;1717;50.240;8.406;2023-04-03T01:31:14;7.90;99.90
3408;DHT22;1717;50.240;8.406;2023-04-03T01:33:43;7.90;99.90
3408;DHT22;1717;50.240;8.406;2023-04-03T01:36:14;7.90;99.90
3408;DHT22;1717;50.240;8.406;2023-04-03T01:38:42;7.90;99.90
3408;DHT22;1717;50.240;8.406;2023-04-03T01:41:09;7.90;99.90
3408;DHT22;1717;50.240;8.406;2023-04-03T01:43:35;7.90;99.90
3408;DHT22;1717;50.240;8.406;2023-04-03T01:46:02;7.90;99.90
3408;DHT22;1717;50.240;8.406;2023-04-03T01:48:29;7.90;99.90
3408;DHT22;1717;50.240;8.406;2023-04-03T01:50:57;7.90;99.90
3408;DHT22;1717;50.240;8.406;2023-04-03T01:53:24;7.90;99.90
3408;DHT22;1717;50.240;8.406;2023-04-03T01:55:51;8.00;99.90
3408;DHT22;1717;50.240;8.406;2023-04-03T01:58:18;8.00;99.90
3408;DHT22;1717;50.240;8.406;2023-04-03T02:00:45;7.90;99.90
3408;DHT22;1717;50.240;8.406;2023-04-03T02:03:12;7.90;99.90
3408;DHT22;1717;50.240;8.406;2023-04-03T02:05:38;7.90;99.90
3408;DHT22;1717;50.240;8.406;2023-04-03T02:08:07;7.90;99.90
3408;DHT22;1717;50.240;8.406;2023-04-03T02:10:34;7.90;99.90
3408;DHT22;1717;50.240;8.406;2023-04-03T02:13:00;8.10;99.90
3408;DHT22;1717;50.240;8.406;2023-04-03T02:15:27;7.90;99.90
3408;DHT22;1717;50.240;8.406;2023-04-03T02:17:54;7.90;99.90
3408;DHT22;1717;50.240;8.406;2023-04-03T02:20:21;7.90;99.90
3408;DHT22;1717;50.240;8.406;2023-04-03T02:22:48;7.90;99.90
3408;DHT22;1717;50.240;8.406;2023-04-03T02:25:16;7.90;99.90
3408;DHT22;1717;50.240;8.406;2023-04-03T02:27:44;7.90;99.90
3408;DHT22;1717;50.240;8.406;2023-04-03T02:30:11;7.90;99.90
3408;DHT22;1717;50.240;8.406;2023-04-03T02:32:40;7.90;99.90
3408;DHT22;1717;50.240;8.406;2023-04-03T02:35:08;7.90;99.90
3408;DHT22;1717;50.240;8.406;2023-04-03T02:37:35;7.90;99.90
3408;DHT22;1717;50.240;8.406;2023-04-03T02:40:02;7.80;99.90
3408;DHT22;1717;50.240;8.406;2023-04-03T02:42:31;7.80;99.90
3408;DHT22;1717;50.240;8.406;2023-04-03T02:44:58;7.80;99.90
3408;DHT22;1717;50.240;8.406;2023-04-03T02:47:25;7.80;99.90
3408;DHT22;1717;50.240;8.406;2023-04-03T02:49:52;7.80;99.90
3408;DHT22;1717;50.240;8.406;2023-04-03T02:52:20;7.80;99.90
3408;DHT22;1717;50.240;8.406;2023-04-03T02:54:47;7.80;99.90
3408;DHT22;1717;50.240;8.406;2023-04-03T02:57:14;7.70;99.90
3408;DHT22;1717;50.240;8.406;2023-04-03T02:59:42;7.60;99.90
3408;DHT22;1717;50.240;8.406;2023-04-03T03:02:10;7.60;99.90
3408;DHT22;1717;50.240;8.406;2023-04-03T03:04:37;7.60;99.90
3408;DHT22;1717;50.240;8.406;2023-04-03T03:07:04;7.60;99.90
3408;DHT22;1717;50.240;8.406;2023-04-03T03:09:31;7.60;99.90
3408;DHT22;1717;50.240;8.406;2023-04-03T03:11:58;7.60;99.90
3408;DHT22;1717;50.240;8.406;2023-04-03T03:14:25;7.50;99.90
3408;DHT22;1717;50.240;8.406;2023-04-03T03:16:53;7.40;99.90
3408;DHT22;1717;50.240;8.406;2023-04-03T03:19:20;7.50;99.90
3408;DHT22;1717;50.240;8.406;2023-04-03T03:21:47;7.40;99.90
3408;DHT22;1717;50.240;8.406;2023-04-03T03:24:14;7.50;99.90
3408;DHT22;1717;50.240;8.406;2023-04-03T03:26:41;7.40;99.90
3408;DHT22;1717;50.240;8.406;2023-04-03T03:29:08;7.40;99.90
3408;DHT22;1717;50.240;8.406;2023-04-03T03:31:35;7.50;99.90
3408;DHT22;1717;50.240;8.406;2023-04-03T03:34:03;7.40;99.90
3408;DHT22;1717;50.240;8.406;2023-04-03T03:36:30;7.40;99.90
3408;DHT22;1717;50.240;8.406;2023-04-03T03:38:57;7.30;99.90
3408;DHT22;1717;50.240;8.406;2023-04-03T03:41:24;7.30;99.90
3408;DHT22;1717;50.240;8.406;2023-04-03T03:43:50;7.30;99.90
3408;DHT22;1717;50.240;8.406;2023-04-03T03:46:17;7.30;99.90
3408;DHT22;1717;50.240;8.406;2023-04-03T03:48:44;7.20;99.90
3408;DHT22;1717;50.240;8.406;2023-04-03T03:51:12;7.30;99.90
3408;DHT22;1717;50.240;8.406;2023-04-03T03:53:39;7.20;99.90
3408;DHT22;1717;50.240;8.406;2023-04-03T03:56:06;7.30;99.90
3408;DHT22;1717;50.240;8.406;2023-04-03T03:58:33;7.30;99.90
3408;DHT22;1717;50.240;8.406;2023-04-03T04:01:01;7.20;99.90
3408;DHT22;1717;50.240;8.406;2023-04-03T04:03:28;7.10;99.90
3408;DHT22;1717;50.240;8.406;2023-04-03T04:05:55;7.10;99.90
3408;DHT22;1717;50.240;8.406;2023-04-03T04:08:23;7.10;99.90
3408;DHT22;1717;50.240;8.406;2023-04-03T04:10:50;7.00;99.90
3408;DHT22;1717;50.240;8.406;2023-04-03T04:13:18;7.00;99.90
3408;DHT22;1717;50.240;8.406;2023-04-03T04:15:45;6.90;99.90
3408;DHT22;1717;50.240;8.406;2023-04-03T04:18:11;6.90;99.90
3408;DHT22;1717;50.240;8.406;2023-04-03T04:20:38;6.80;99.90
3408;DHT22;1717;50.240;8.406;2023-04-03T04:23:05;6.80;99.90
3408;DHT22;1717;50.240;8.406;2023-04-03T04:25:33;6.60;99.90
3408;DHT22;1717;50.240;8.406;2023-04-03T04:28:00;6.50;99.90
3408;DHT22;1717;50.240;8.406;2023-04-03T04:30:27;6.50;99.90
3408;DHT22;1717;50.240;8.406;2023-04-03T04:32:54;6.60;99.90
3408;DHT22;1717;50.240;8.406;2023-04-03T04:35:20;6.60;99.90
3408;DHT22;1717;50.240;8.406;2023-04-03T04:37:47;6.50;99.90
3408;DHT22;1717;50.240;8.406;2023-04-03T04:40:14;6.50;99.90
3408;DHT22;1717;50.240;8.406;2023-04-03T04:42:42;6.50;99.90
3408;DHT22;1717;50.240;8.406;2023-04-03T04:45:10;6.70;99.90
3408;DHT22;1717;50.240;8.406;2023-04-03T04:47:37;6.60;99.90
3408;DHT22;1717;50.240;8.406;2023-04-03T04:50:04;6.60;99.90
3408;DHT22;1717;50.240;8.406;2023-04-03T04:52:31;6.50;99.90
3408;DHT22;1717;50.240;8.406;2023-04-03T04:54:58;6.50;99.90
3408;DHT22;1717;50.240;8.406;2023-04-03T04:57:25;6.50;99.90
3408;DHT22;1717;50.240;8.406;2023-04-03T04:59:54;6.40;99.90
3408;DHT22;1717;50.240;8.406;2023-04-03T05:02:20;6.30;99.90
3408;DHT22;1717;50.240;8.406;2023-04-03T05:04:47;6.30;99.90
3408;DHT22;1717;50.240;8.406;2023-04-03T05:07:15;6.30;99.90
3408;DHT22;1717;50.240;8.406;2023-04-03T05:09:42;6.30;99.90
3408;DHT22;1717;50.240;8.406;2023-04-03T05:12:09;6.30;99.90
3408;DHT22;1717;50.240;8.406;2023-04-03T05:14:36;6.30;99.90
3408;DHT22;1717;50.240;8.406;2023-04-03T05:17:04;6.20;99.90
3408;DHT22;1717;50.240;8.406;2023-04-03T05:19:31;6.20;99.90
3408;DHT22;1717;50.240;8.406;2023-04-03T05:21:58;6.20;99.90
3408;DHT22;1717;50.240;8.406;2023-04-03T05:24:25;6.20;99.90
3408;DHT22;1717;50.240;8.406;2023-04-03T05:26:52;6.20;99.90
3408;DHT22;1717;50.240;8.406;2023-04-03T05:29:18;6.20;99.90
3408;DHT22;1717;50.240;8.406;2023-04-03T05:31:45;6.20;99.90
3408;DHT22;1717;50.240;8.406;2023-04-03T05:34:13;6.10;99.90
3408;DHT22;1717;50.240;8.406;2023-04-03T05:36:40;6.10;99.90
3408;DHT22;1717;50.240;8.406;2023-04-03T05:39:07;6.00;99.90
3408;DHT22;1717;50.240;8.406;2023-04-03T05:41:34;6.00;99.90
3408;DHT22;1717;50.240;8.406;2023-04-03T05:44:01;6.00;99.90
3408;DHT22;1717;50.240;8.406;2023-04-03T05:46:28;5.90;99.90
3408;DHT22;1717;50.240;8.406;2023-04-03T05:48:55;6.10;99.90
3408;DHT22;1717;50.240;8.406;2023-04-03T05:51:25;5.90;99.90
3408;DHT22;1717;50.240;8.406;2023-04-03T05:53:55;5.90;99.90
3408;DHT22;1717;50.240;8.406;2023-04-03T05:56:23;6.00;99.90
3408;DHT22;1717;50.240;8.406;2023-04-03T05:58:51;6.10;99.90
3408;DHT22;1717;50.240;8.406;2023-04-03T06:01:18;6.00;99.90
3408;DHT22;1717;50.240;8.406;2023-04-03T06:03:44;6.10;99.90
3408;DHT22;1717;50.240;8.406;2023-04-03T06:06:13;5.90;99.90
3408;DHT22;1717;50.240;8.406;2023-04-03T06:08:41;6.00;99.90
3408;DHT22;1717;50.240;8.406;2023-04-03T06:11:09;6.00;99.90
3408;DHT22;1717;50.240;8.406;2023-04-03T06:13:36;5.90;99.90
3408;DHT22;1717;50.240;8.406;2023-04-03T06:16:04;5.90;99.90
3408;DHT22;1717;50.240;8.406;2023-04-03T06:18:31;5.90;99.90
3408;DHT22;1717;50.240;8.406;2023-04-03T06:20:58;5.90;99.90
3408;DHT22;1717;50.240;8.406;2023-04-03T06:23:26;5.90;99.90
3408;DHT22;1717;50.240;8.406;2023-04-03T06:25:54;5.90;99.90
3408;DHT22;1717;50.240;8.406;2023-04-03T06:28:21;5.90;99.90
3408;DHT22;1717;50.240;8.406;2023-04-03T06:30:48;5.90;99.90
3408;DHT22;1717;50.240;8.406;2023-04-03T06:33:15;6.00;99.90
3408;DHT22;1717;50.240;8.406;2023-04-03T06:35:43;6.00;99.90
3408;DHT22;1717;50.240;8.406;2023-04-03T06:38:09;6.00;99.90
3408;DHT22;1717;50.240;8.406;2023-04-03T06:40:36;6.10;99.90
3408;DHT22;1717;50.240;8.406;2023-04-03T06:43:05;5.90;99.90
3408;DHT22;1717;50.240;8.406;2023-04-03T06:45:32;6.00;99.90
3408;DHT22;1717;50.240;8.406;2023-04-03T06:48:00;6.00;99.90
3408;DHT22;1717;50.240;8.406;2023-04-03T06:50:27;6.00;99.90
3408;DHT22;1717;50.240;8.406;2023-04-03T06:52:54;6.00;99.90
3408;DHT22;1717;50.240;8.406;2023-04-03T06:55:20;6.00;99.90
3408;DHT22;1717;50.240;8.406;2023-04-03T06:57:47;5.90;99.90
3408;DHT22;1717;50.240;8.406;2023-04-03T07:00:17;5.90;99.90
3408;DHT22;1717;50.240;8.406;2023-04-03T07:02:44;5.90;99.90
3408;DHT22;1717;50.240;8.406;2023-04-03T07:05:11;5.90;99.90
3408;DHT22;1717;50.240;8.406;2023-04-03T07:07:38;6.10;99.90
3408;DHT22;1717;50.240;8.406;2023-04-03T07:10:08;5.90;99.90
3408;DHT22;1717;50.240;8.406;2023-04-03T07:12:35;5.80;99.90
3408;DHT22;1717;50.240;8.406;2023-04-03T07:15:04;5.90;99.90
3408;DHT22;1717;50.240;8.406;2023-04-03T07:17:32;6.00;99.90
3408;DHT22;1717;50.240;8.406;2023-04-03T07:19:59;5.90;99.90
3408;DHT22;1717;50.240;8.406;2023-04-03T07:22:26;5.90;99.90
3408;DHT22;1717;50.240;8.406;2023-04-03T07:24:53;5.80;99.90
3408;DHT22;1717;50.240;8.406;2023-04-03T07:27:20;5.90;99.90
3408;DHT22;1717;50.240;8.406;2023-04-03T07:29:47;5.90;99.90
3408;DHT22;1717;50.240;8.406;2023-04-03T07:32:15;6.00;99.90
3408;DHT22;1717;50.240;8.406;2023-04-03T07:34:44;6.00;99.90
3408;DHT22;1717;50.240;8.406;2023-04-03T07:37:11;6.00;99.90
3408;DHT22;1717;50.240;8.406;2023-04-03T07:39:38;5.90;99.90
3408;DHT22;1717;50.240;8.406;2023-04-03T07:42:05;6.00;99.90
3408;DHT22;1717;50.240;8.406;2023-04-03T07:44:32;6.00;99.90
3408;DHT22;1717;50.240;8.406;2023-04-03T07:47:01;6.10;99.90
3408;DHT22;1717;50.240;8.406;2023-04-03T07:49:28;6.00;99.90
3408;DHT22;1717;50.240;8.406;2023-04-03T07:51:56;6.10;99.90
3408;DHT22;1717;50.240;8.406;2023-04-03T07:54:24;6.20;99.90
3408;DHT22;1717;50.240;8.406;2023-04-03T07:56:51;6.20;99.90
3408;DHT22;1717;50.240;8.406;2023-04-03T07:59:18;6.20;99.90
3408;DHT22;1717;50.240;8.406;2023-04-03T08:01:45;6.30;99.90
3408;DHT22;1717;50.240;8.406;2023-04-03T08:04:12;6.40;99.90
3408;DHT22;1717;50.240;8.406;2023-04-03T08:06:40;6.50;99.90
3408;DHT22;1717;50.240;8.406;2023-04-03T08:09:08;6.50;99.90
3408;DHT22;1717;50.240;8.406;2023-04-03T08:11:35;6.50;99.90
3408;DHT22;1717;50.240;8.406;2023-04-03T08:14:04;6.50;99.90
3408;DHT22;1717;50.240;8.406;2023-04-03T08:16:32;6.50;99.90
3408;DHT22;1717;50.240;8.406;2023-04-03T08:18:59;6.50;99.90
3408;DHT22;1717;50.240;8.406;2023-04-03T08:21:26;6.50;99.90
3408;DHT22;1717;50.240;8.406;2023-04-03T08:23:53;6.60;99.90
3408;DHT22;1717;50.240;8.406;2023-04-03T08:26:22;6.50;99.90
3408;DHT22;1717;50.240;8.406;2023-04-03T08:28:49;6.60;99.90
3408;DHT22;1717;50.240;8.406;2023-04-03T08:31:18;6.60;99.90
3408;DHT22;1717;50.240;8.406;2023-04-03T08:33:46;6.70;99.90
3408;DHT22;1717;50.240;8.406;2023-04-03T08:36:18;6.70;99.90
3408;DHT22;1717;50.240;8.406;2023-04-03T08:38:46;6.70;99.90
3408;DHT22;1717;50.240;8.406;2023-04-03T08:41:16;6.80;99.90
3408;DHT22;1717;50.240;8.406;2023-04-03T08:43:58;6.80;99.90
3408;DHT22;1717;50.240;8.406;2023-04-03T08:46:37;6.90;99.90
3408;DHT22;1717;50.240;8.406;2023-04-03T08:49:11;7.00;99.90
3408;DHT22;1717;50.240;8.406;2023-04-03T08:51:43;6.90;99.90
3408;DHT22;1717;50.240;8.406;2023-04-03T08:54:22;7.00;99.90
3408;DHT22;1717;50.240;8.406;2023-04-03T08:56:52;7.20;99.90
3408;DHT22;1717;50.240;8.406;2023-04-03T08:59:26;7.20;99.90
3408;DHT22;1717;50.240;8.406;2023-04-03T09:01:54;7.30;99.90
3408;DHT22;1717;50.240;8.406;2023-04-03T09:04:21;7.40;99.90
3408;DHT22;1717;50.240;8.406;2023-04-03T09:06:51;7.30;99.50
3408;DHT22;1717;50.240;8.406;2023-04-03T09:09:30;7.40;99.90
3408;DHT22;1717;50.240;8.406;2023-04-03T09:12:04;7.50;99.70
3408;DHT22;1717;50.240;8.406;2023-04-03T09:14:39;7.60;99.90
3408;DHT22;1717;50.240;8.406;2023-04-03T09:17:14;7.60;99.60
3408;DHT22;1717;50.240;8.406;2023-04-03T09:19:51;7.70;99.50
3408;DHT22;1717;50.240;8.406;2023-04-03T09:22:24;7.80;99.50
3408;DHT22;1717;50.240;8.406;2023-04-03T09:24:57;7.90;99.10
3408;DHT22;1717;50.240;8.406;2023-04-03T09:27:25;8.00;98.80
3408;DHT22;1717;50.240;8.406;2023-04-03T09:29:55;7.90;97.10
3408;DHT22;1717;50.240;8.406;2023-04-03T09:32:27;7.90;96.90
3408;DHT22;1717;50.240;8.406;2023-04-03T09:34:56;7.80;96.60
3408;DHT22;1717;50.240;8.406;2023-04-03T09:37:35;8.00;97.00
3408;DHT22;1717;50.240;8.406;2023-04-03T09:40:04;8.00;97.40
3408;DHT22;1717;50.240;8.406;2023-04-03T09:42:31;8.10;97.70
3408;DHT22;1717;50.240;8.406;2023-04-03T09:45:03;8.20;97.40
3408;DHT22;1717;50.240;8.406;2023-04-03T09:47:31;8.10;96.00
3408;DHT22;1717;50.240;8.406;2023-04-03T09:50:18;8.10;96.50
3408;DHT22;1717;50.240;8.406;2023-04-03T09:52:48;8.10;95.80
3408;DHT22;1717;50.240;8.406;2023-04-03T09:55:18;8.10;95.90
3408;DHT22;1717;50.240;8.406;2023-04-03T09:57:47;8.10;95.30
3408;DHT22;1717;50.240;8.406;2023-04-03T10:00:23;8.30;96.30
3408;DHT22;1717;50.240;8.406;2023-04-03T10:02:53;8.30;96.30
3408;DHT22;1717;50.240;8.406;2023-04-03T10:05:33;8.40;96.10
3408;DHT22;1717;50.240;8.406;2023-04-03T10:08:19;8.40;95.40
3408;DHT22;1717;50.240;8.406;2023-04-03T10:10:48;8.40;95.30
3408;DHT22;1717;50.240;8.406;2023-04-03T10:13:32;8.40;95.00
3408;DHT22;1717;50.240;8.406;2023-04-03T10:16:04;8.40;94.40
3408;DHT22;1717;50.240;8.406;2023-04-03T10:18:39;8.40;94.00
3408;DHT22;1717;50.240;8.406;2023-04-03T10:21:13;8.40;93.70
3408;DHT22;1717;50.240;8.406;2023-04-03T10:23:45;8.40;93.70
3408;DHT22;1717;50.240;8.406;2023-04-03T10:26:26;8.50;94.00
3408;DHT22;1717;50.240;8.406;2023-04-03T10:29:00;8.40;92.60
3408;DHT22;1717;50.240;8.406;2023-04-03T10:31:36;8.40;92.50
3408;DHT22;1717;50.240;8.406;2023-04-03T10:34:06;8.40;92.40
3408;DHT22;1717;50.240;8.406;2023-04-03T10:36:38;8.50;92.60
3408;DHT22;1717;50.240;8.406;2023-04-03T10:39:18;8.50;92.70
3408;DHT22;1717;50.240;8.406;2023-04-03T10:41:58;8.50;92.20
3408;DHT22;1717;50.240;8.406;2023-04-03T10:44:32;8.50;91.60
3408;DHT22;1717;50.240;8.406;2023-04-03T10:47:09;8.50;92.30
3408;DHT22;1717;50.240;8.406;2023-04-03T10:49:47;8.40;91.30
3408;DHT22;1717;50.240;8.406;2023-04-03T10:52:20;8.40;90.70
3408;DHT22;1717;50.240;8.406;2023-04-03T10:54:56;8.40;90.40
3408;DHT22;1717;50.240;8.406;2023-04-03T10:57:30;8.30;88.70
3408;DHT22;1717;50.240;8.406;2023-04-03T11:00:00;8.20;87.20
3408;DHT22;1717;50.240;8.406;2023-04-03T11:02:31;8.20;86.20
3408;DHT22;1717;50.240;8.406;2023-04-03T11:05:01;8.20;87.80
3408;DHT22;1717;50.240;8.406;2023-04-03T11:07:32;8.20;88.20
3408;DHT22;1717;50.240;8.406;2023-04-03T11:10:08;8.20;87.80
3408;DHT22;1717;50.240;8.406;2023-04-03T11:12:42;8.20;87.50
3408;DHT22;1717;50.240;8.406;2023-04-03T11:15:13;8.30;89.00
3408;DHT22;1717;50.240;8.406;2023-04-03T11:17:46;8.20;87.70
3408;DHT22;1717;50.240;8.406;2023-04-03T11:20:19;8.30;88.40
3408;DHT22;1717;50.240;8.406;2023-04-03T11:22:58;8.20;86.60
3408;DHT22;1717;50.240;8.406;2023-04-03T11:25:30;8.20;86.60
3408;DHT22;1717;50.240;8.406;2023-04-03T11:27:59;8.10;84.00
3408;DHT22;1717;50.240;8.406;2023-04-03T11:30:30;8.20;86.80
3408;DHT22;1717;50.240;8.406;2023-04-03T11:33:18;8.10;84.00
3408;DHT22;1717;50.240;8.406;2023-04-03T11:35:49;8.10;83.40
3408;DHT22;1717;50.240;8.406;2023-04-03T11:38:22;8.20;84.70
3408;DHT22;1717;50.240;8.406;2023-04-03T11:40:52;8.20;84.70
3408;DHT22;1717;50.240;8.406;2023-04-03T11:43:24;8.10;82.60
3408;DHT22;1717;50.240;8.406;2023-04-03T11:45:57;8.10;83.30
3408;DHT22;1717;50.240;8.406;2023-04-03T11:48:45;8.20;83.40
3408;DHT22;1717;50.240;8.406;2023-04-03T11:51:39;8.20;82.20
3408;DHT22;1717;50.240;8.406;2023-04-03T12:00:48;8.20;81.70
3408;DHT22;1717;50.240;8.406;2023-04-03T12:06:58;8.20;80.00
3408;DHT22;1717;50.240;8.406;2023-04-03T12:12:27;8.00;79.90
3408;DHT22;1717;50.240;8.406;2023-04-03T12:14:55;8.30;80.20
3408;DHT22;1717;50.240;8.406;2023-04-03T12:17:26;8.40;81.50
3408;DHT22;1717;50.240;8.406;2023-04-03T12:19:54;8.40;80.00
3408;DHT22;1717;50.240;8.406;2023-04-03T12:22:23;8.60;80.80
3408;DHT22;1717;50.240;8.406;2023-04-03T12:24:51;8.50;77.10
3408;DHT22;1717;50.240;8.406;2023-04-03T12:27:25;8.60;79.20
3408;DHT22;1717;50.240;8.406;2023-04-03T12:30:01;8.60;79.20
3408;DHT22;1717;50.240;8.406;2023-04-03T12:32:46;8.70;77.50
3408;DHT22;1717;50.240;8.406;2023-04-03T12:35:21;8.80;77.70
3408;DHT22;1717;50.240;8.406;2023-04-03T12:38:29;8.80;77.70
3408;DHT22;1717;50.240;8.406;2023-04-03T12:41:21;8.90;76.90
3408;DHT22;1717;50.240;8.406;2023-04-03T12:44:06;8.90;75.30
3408;DHT22;1717;50.240;8.406;2023-04-03T12:46:38;9.00;75.10
3408;DHT22;1717;50.240;8.406;2023-04-03T12:49:33;9.00;72.30
3408;DHT22;1717;50.240;8.406;2023-04-03T12:52:04;9.10;75.10
3408;DHT22;1717;50.240;8.406;2023-04-03T12:54:36;9.30;74.90
3408;DHT22;1717;50.240;8.406;2023-04-03T12:57:12;9.40;73.90
3408;DHT22;1717;50.240;8.406;2023-04-03T12:59:39;9.50;72.80
3408;DHT22;1717;50.240;8.406;2023-04-03T13:02:20;9.60;72.90
3408;DHT22;1717;50.240;8.406;2023-04-03T13:04:49;9.80;73.10
3408;DHT22;1717;50.240;8.406;2023-04-03T13:07:21;9.90;71.30
3408;DHT22;1717;50.240;8.406;2023-04-03T13:10:13;10.00;68.50
3408;DHT22;1717;50.240;8.406;2023-04-03T13:12:46;10.20;68.20
3408;DHT22;1717;50.240;8.406;2023-04-03T13:15:16;10.30;66.80
3408;DHT22;1717;50.240;8.406;2023-04-03T13:17:44;10.30;65.00
3408;DHT22;1717;50.240;8.406;2023-04-03T13:20:17;10.30;62.00
3408;DHT22;1717;50.240;8.406;2023-04-03T13:22:49;10.30;63.50
3408;DHT22;1717;50.240;8.406;2023-04-03T13:25:20;10.40;64.80
3408;DHT22;1717;50.240;8.406;2023-04-03T13:27:49;10.50;63.40
3408;DHT22;1717;50.240;8.406;2023-04-03T13:30:22;10.60;65.70
3408;DHT22;1717;50.240;8.406;2023-04-03T13:32:50;10.70;65.70
3408;DHT22;1717;50.240;8.406;2023-04-03T13:35:35;10.80;63.00
3408;DHT22;1717;50.240;8.406;2023-04-03T13:38:19;10.90;64.90
3408;DHT22;1717;50.240;8.406;2023-04-03T13:40:50;11.00;63.80
3408;DHT22;1717;50.240;8.406;2023-04-03T13:43:19;11.00;64.60
3408;DHT22;1717;50.240;8.406;2023-04-03T13:45:57;11.10;61.50
3408;DHT22;1717;50.240;8.406;2023-04-03T13:48:25;11.10;61.00
3408;DHT22;1717;50.240;8.406;2023-04-03T13:50:56;11.10;60.00
3408;DHT22;1717;50.240;8.406;2023-04-03T13:53:24;11.20;59.80
3408;DHT22;1717;50.240;8.406;2023-04-03T13:56:06;11.20;59.70
3408;DHT22;1717;50.240;8.406;2023-04-03T13:58:34;11.30;60.90
3408;DHT22;1717;50.240;8.406;2023-04-03T14:01:09;11.40;60.90
3408;DHT22;1717;50.240;8.406;2023-04-03T14:03:42;11.60;60.80
3408;DHT22;1717;50.240;8.406;2023-04-03T14:06:11;11.60;61.60
3408;DHT22;1717;50.240;8.406;2023-04-03T14:08:39;11.60;60.40
3408;DHT22;1717;50.240;8.406;2023-04-03T14:11:11;11.70;59.30
3408;DHT22;1717;50.240;8.406;2023-04-03T14:13:39;11.80;59.80
3408;DHT22;1717;50.240;8.406;2023-04-03T14:16:06;11.90;59.50
3408;DHT22;1717;50.240;8.406;2023-04-03T14:18:33;11.90;58.20
3408;DHT22;1717;50.240;8.406;2023-04-03T14:21:00;11.90;59.40
3408;DHT22;1717;50.240;8.406;2023-04-03T14:23:26;12.00;58.80
3408;DHT22;1717;50.240;8.406;2023-04-03T14:25:53;12.00;59.20
3408;DHT22;1717;50.240;8.406;2023-04-03T14:28:23;12.10;59.60
3408;DHT22;1717;50.240;8.406;2023-04-03T14:30:50;12.10;57.00
3408;DHT22;1717;50.240;8.406;2023-04-03T14:33:20;12.20;57.30
3408;DHT22;1717;50.240;8.406;2023-04-03T14:35:47;12.20;57.50
3408;DHT22;1717;50.240;8.406;2023-04-03T14:38:23;12.20;55.00
3408;DHT22;1717;50.240;8.406;2023-04-03T14:40:51;12.30;57.30
3408;DHT22;1717;50.240;8.406;2023-04-03T14:43:18;12.30;58.00
3408;DHT22;1717;50.240;8.406;2023-04-03T14:45:47;12.40;58.00
3408;DHT22;1717;50.240;8.406;2023-04-03T14:48:18;12.40;56.50
3408;DHT22;1717;50.240;8.406;2023-04-03T14:50:47;12.50;56.70
3408;DHT22;1717;50.240;8.406;2023-04-03T14:53:14;12.50;55.30
3408;DHT22;1717;50.240;8.406;2023-04-03T14:55:43;12.50;54.00
3408;DHT22;1717;50.240;8.406;2023-04-03T14:58:15;12.60;56.00
3408;DHT22;1717;50.240;8.406;2023-04-03T15:00:42;12.60;56.20
3408;DHT22;1717;50.240;8.406;2023-04-03T15:03:15;12.60;54.10
3408;DHT22;1717;50.240;8.406;2023-04-03T15:05:42;12.70;55.70
3408;DHT22;1717;50.240;8.406;2023-04-03T15:08:18;12.60;53.90
3408;DHT22;1717;50.240;8.406;2023-04-03T15:10:46;12.70;53.00
3408;DHT22;1717;50.240;8.406;2023-04-03T15:13:13;12.70;55.50
3408;DHT22;1717;50.240;8.406;2023-04-03T15:15:40;12.70;54.90
3408;DHT22;1717;50.240;8.406;2023-04-03T15:18:14;12.80;54.50
3408;DHT22;1717;50.240;8.406;2023-04-03T15:20:42;12.80;54.30
3408;DHT22;1717;50.240;8.406;2023-04-03T15:23:10;12.80;53.80
3408;DHT22;1717;50.240;8.406;2023-04-03T15:25:37;12.80;52.70
3408;DHT22;1717;50.240;8.406;2023-04-03T15:28:05;12.80;54.60
3408;DHT22;1717;50.240;8.406;2023-04-03T15:30:34;12.90;54.40
3408;DHT22;1717;50.240;8.406;2023-04-03T15:33:03;12.90;54.80
3408;DHT22;1717;50.240;8.406;2023-04-03T15:35:31;12.90;51.80
3408;DHT22;1717;50.240;8.406;2023-04-03T15:37:58;12.90;50.20
3408;DHT22;1717;50.240;8.406;2023-04-03T15:40:25;12.90;51.50
3408;DHT22;1717;50.240;8.406;2023-04-03T15:42:52;12.90;51.20
3408;DHT22;1717;50.240;8.406;2023-04-03T15:45:19;12.90;50.90
3408;DHT22;1717;50.240;8.406;2023-04-03T15:47:46;12.90;52.30
3408;DHT22;1717;50.240;8.406;2023-04-03T15:50:13;12.80;50.40
3408;DHT22;1717;50.240;8.406;2023-04-03T15:52:42;13.00;51.60
3408;DHT22;1717;50.240;8.406;2023-04-03T15:55:09;12.90;53.40
3408;DHT22;1717;50.240;8.406;2023-04-03T15:57:36;12.90;52.00
3408;DHT22;1717;50.240;8.406;2023-04-03T16:00:03;12.90;53.10
3408;DHT22;1717;50.240;8.406;2023-04-03T16:02:31;12.90;54.00
3408;DHT22;1717;50.240;8.406;2023-04-03T16:04:59;12.90;53.60
3408;DHT22;1717;50.240;8.406;2023-04-03T16:07:26;12.90;55.00
3408;DHT22;1717;50.240;8.406;2023-04-03T16:09:54;13.00;52.70
3408;DHT22;1717;50.240;8.406;2023-04-03T16:12:21;12.90;52.80
3408;DHT22;1717;50.240;8.406;2023-04-03T16:14:48;12.80;50.60
3408;DHT22;1717;50.240;8.406;2023-04-03T16:17:14;12.80;51.80
3408;DHT22;1717;50.240;8.406;2023-04-03T16:19:41;12.60;49.30
3408;DHT22;1717;50.240;8.406;2023-04-03T16:22:09;12.20;46.50
3408;DHT22;1717;50.240;8.406;2023-04-03T16:24:36;11.80;45.60
3408;DHT22;1717;50.240;8.406;2023-04-03T16:27:05;11.30;47.90
3408;DHT22;1717;50.240;8.406;2023-04-03T16:29:31;10.90;48.20
3408;DHT22;1717;50.240;8.406;2023-04-03T16:31:59;10.50;48.00
3408;DHT22;1717;50.240;8.406;2023-04-03T16:34:26;10.10;48.70
3408;DHT22;1717;50.240;8.406;2023-04-03T16:36:55;10.00;50.70
3408;DHT22;1717;50.240;8.406;2023-04-03T16:39:22;9.60;52.40
3408;DHT22;1717;50.240;8.406;2023-04-03T16:41:49;9.50;52.20
3408;DHT22;1717;50.240;8.406;2023-04-03T16:44:18;9.40;53.70
3408;DHT22;1717;50.240;8.406;2023-04-03T16:46:44;9.10;53.80